Terminal Aerodrome Forecast
Issued by NWS

Home | Current Version | Previous Version | Graphics & Text | Print | Product List | Glossary On
Versions: 1 2 3 4 5 6 7 8 9 10 11 12 13 14 15 16 17 18 19 20 21 22 23 24 25 26 27 28
356
FTUS45 KGGW 162325
TAFGDV
TAF
KGDV 162325Z 1700/1724 19008KT P6SM BKN110
     FM170600 22008KT P6SM BKN040
     FM170700 22008KT P6SM BKN070 WS020/26035KT
     FM170800 23006KT 3SM BR BKN030 WS020/26040KT
     FM171200 24011G21KT P6SM SCT110 WS020/27045KT
     FM171800 25013KT P6SM FEW120=

USA.gov is the U.S. government's official web portal to all federal, state and local government web resources and services.